createdAt,value
2022-10-30T00:01:40.043Z,101341.63
2022-10-30T00:04:42.585Z,101335.16
2022-10-30T00:07:45.075Z,101338.56
2022-10-30T00:10:50.139Z,101349.03
2022-10-30T00:13:53.966Z,101353.13
2022-10-30T00:16:56.462Z,101343.50
2022-10-30T00:19:58.988Z,101339.22
2022-10-30T00:23:01.681Z,101330.38
2022-10-30T00:26:05.362Z,101327.78
2022-10-30T00:29:09.180Z,101340.94
2022-10-30T00:32:11.822Z,101333.00
2022-10-30T00:35:14.340Z,101331.19
2022-10-30T00:38:16.857Z,101322.22
2022-10-30T00:41:22.982Z,101325.13
2022-10-30T00:44:45.945Z,101328.66
2022-10-30T00:47:53.777Z,101336.06
2022-10-30T00:50:57.983Z,101327.16
2022-10-30T00:54:03.849Z,101330.16
2022-10-30T00:57:08.882Z,101320.50
2022-10-30T01:00:14.539Z,101314.44
2022-10-30T01:03:19.543Z,101314.44
2022-10-30T01:06:23.477Z,101317.91
2022-10-30T01:09:26.046Z,101318.84
2022-10-30T01:12:28.827Z,101318.22
2022-10-30T01:15:37.385Z,101322.56
2022-10-30T01:18:49.251Z,101318.84
2022-10-30T01:22:07.837Z,101313.69
2022-10-30T01:25:23.791Z,101311.16
2022-10-30T01:28:36.404Z,101312.81
2022-10-30T01:31:52.824Z,101309.19
2022-10-30T01:35:00.657Z,101307.78
2022-10-30T01:38:07.903Z,101304.16
2022-10-30T01:41:10.427Z,101302.50
2022-10-30T01:44:18.213Z,101304.69
2022-10-30T01:47:33.930Z,101302.75
2022-10-30T01:50:48.431Z,101286.72
2022-10-30T01:53:59.974Z,101288.56
2022-10-30T01:57:09.173Z,101278.75
2022-10-30T02:00:13.528Z,101280.47
2022-10-30T02:03:17.400Z,101277.13
2022-10-30T02:06:20.120Z,101282.38
2022-10-30T02:09:22.789Z,101272.38
2022-10-30T02:12:26.402Z,101280.47
2022-10-30T02:15:29.099Z,101280.47
2022-10-30T02:18:32.970Z,101278.59
2022-10-30T02:21:36.846Z,101281.81
2022-10-30T02:24:39.552Z,101281.28
2022-10-30T02:27:42.312Z,101281.38
2022-10-30T02:30:44.928Z,101275.94
2022-10-30T02:33:48.317Z,101274.44
2022-10-30T02:36:52.107Z,101279.38
2022-10-30T02:39:54.622Z,101282.88
2022-10-30T02:42:57.117Z,101286.78
2022-10-30T02:45:59.761Z,101284.09
2022-10-30T02:49:02.808Z,101280.03
2022-10-30T02:52:07.606Z,101279.50
2022-10-30T02:55:10.680Z,101283.75
2022-10-30T02:58:13.152Z,101290.94
2022-10-30T03:01:17.506Z,101294.47
2022-10-30T03:04:20.061Z,101286.72
2022-10-30T03:07:23.940Z,101292.13
2022-10-30T03:10:26.460Z,101297.56
2022-10-30T03:13:30.479Z,101288.06
2022-10-30T03:16:33.548Z,101295.13
2022-10-30T03:19:36.548Z,101306.53
2022-10-30T03:22:40.389Z,101308.00
2022-10-30T03:25:42.874Z,101305.97
2022-10-30T03:28:45.977Z,101302.34
2022-10-30T03:31:48.468Z,101305.16
2022-10-30T03:34:50.937Z,101301.72
2022-10-30T03:37:54.761Z,101311.31
2022-10-30T03:40:57.514Z,101300.31
2022-10-30T03:44:00.262Z,101303.44
2022-10-30T03:47:02.777Z,101300.72
2022-10-30T03:50:05.872Z,101304.31
2022-10-30T03:53:09.790Z,101306.75
2022-10-30T03:56:12.444Z,101309.28
2022-10-30T03:59:14.930Z,101304.81
2022-10-30T04:02:17.516Z,101311.16
2022-10-30T04:05:22.565Z,101310.38
2022-10-30T04:08:26.384Z,101313.25
2022-10-30T04:11:28.944Z,101316.97
2022-10-30T04:14:31.457Z,101310.91
2022-10-30T04:17:34.251Z,101309.41
2022-10-30T04:20:36.801Z,101311.22
2022-10-30T04:23:40.640Z,101311.13
2022-10-30T04:26:43.121Z,101313.25
2022-10-30T04:29:46.641Z,101313.47
2022-10-30T04:32:49.854Z,101310.22
2022-10-30T04:35:52.435Z,101307.44
2022-10-30T04:38:56.247Z,101318.03
2022-10-30T04:41:58.780Z,101310.97
2022-10-30T04:45:04.984Z,101304.19
2022-10-30T04:48:09.283Z,101293.69
2022-10-30T04:51:12.602Z,101298.47
2022-10-30T04:54:16.414Z,101292.03
2022-10-30T04:57:18.905Z,101298.97
2022-10-30T05:00:21.400Z,101295.25
2022-10-30T05:03:25.414Z,101297.81
2022-10-30T05:06:30.798Z,101290.84
2022-10-30T05:09:34.659Z,101285.44
2022-10-30T05:12:37.131Z,101291.78
2022-10-30T05:15:39.676Z,101282.84
2022-10-30T05:18:42.152Z,101289.72
2022-10-30T05:21:44.636Z,101283.31
2022-10-30T05:24:48.437Z,101282.38
2022-10-30T05:27:50.927Z,101293.03
2022-10-30T05:30:53.742Z,101293.03
2022-10-30T05:33:56.233Z,101297.75
2022-10-30T05:36:58.696Z,101302.31
2022-10-30T05:40:02.574Z,101304.19
2022-10-30T05:43:06.073Z,101302.47
2022-10-30T05:46:08.628Z,101301.16
2022-10-30T05:49:11.140Z,101304.78
2022-10-30T05:52:13.653Z,101311.03
2022-10-30T05:55:17.462Z,101310.25
2022-10-30T05:58:19.953Z,101311.97
2022-10-30T06:01:22.745Z,101292.50
2022-10-30T06:04:25.307Z,101312.91
2022-10-30T06:07:27.789Z,101316.59
2022-10-30T06:10:31.793Z,101320.06
2022-10-30T06:13:34.289Z,101323.03
2022-10-30T06:16:37.978Z,101325.81
2022-10-30T06:19:40.475Z,101321.41
2022-10-30T06:22:42.982Z,101337.38
2022-10-30T06:25:47.119Z,101339.41
2022-10-30T06:28:49.650Z,101336.50
2022-10-30T06:31:52.149Z,101339.13
2022-10-30T06:34:54.621Z,101336.19
2022-10-30T06:38:00.048Z,101337.22
2022-10-30T06:41:03.870Z,101344.06
2022-10-30T06:44:06.431Z,101337.97
2022-10-30T06:47:08.929Z,101344.94
2022-10-30T06:50:12.992Z,101344.66
2022-10-30T06:53:15.505Z,101345.59
2022-10-30T06:56:19.321Z,101346.44
2022-10-30T06:59:21.842Z,101344.44
2022-10-30T07:02:24.383Z,101349.84
2022-10-30T07:05:27.101Z,101357.44
2022-10-30T07:08:29.602Z,101361.78
2022-10-30T07:11:33.422Z,101362.13
2022-10-30T07:14:36.568Z,101357.50
2022-10-30T07:17:39.036Z,101358.84
2022-10-30T07:20:41.624Z,101364.06
2022-10-30T07:23:44.087Z,101356.53
2022-10-30T07:26:47.904Z,101356.09
2022-10-30T07:29:50.379Z,101366.47
2022-10-30T07:33:01.246Z,101363.63
2022-10-30T07:36:04.707Z,101367.88
2022-10-30T07:39:07.305Z,101356.59
2022-10-30T07:42:11.120Z,101364.91
2022-10-30T07:45:13.603Z,101365.41
2022-10-30T07:48:16.077Z,101369.31
2022-10-30T07:51:18.566Z,101363.50
2022-10-30T07:54:21.036Z,101373.44
2022-10-30T07:57:24.981Z,101377.88
2022-10-30T08:00:27.638Z,101380.31
2022-10-30T08:03:30.554Z,101395.19
2022-10-30T08:06:33.064Z,101394.72
2022-10-30T08:09:35.522Z,101397.31
2022-10-30T08:12:40.512Z,101400.00
2022-10-30T08:15:43.377Z,101400.78
2022-10-30T08:18:45.891Z,101398.50
2022-10-30T08:21:48.384Z,101400.41
2022-10-30T08:24:50.898Z,101399.13
2022-10-30T08:27:56.549Z,101397.78
2022-10-30T08:30:59.611Z,101401.09
2022-10-30T08:34:02.143Z,101390.22
2022-10-30T08:37:04.651Z,101396.72
2022-10-30T08:40:08.921Z,101387.69
2022-10-30T08:43:13.082Z,101392.94
2022-10-30T08:46:15.581Z,101394.16
2022-10-30T08:49:18.076Z,101390.19
2022-10-30T08:52:20.620Z,101396.69
2022-10-30T08:55:23.187Z,101403.50
2022-10-30T08:58:27.014Z,101393.47
2022-10-30T09:01:29.545Z,101390.69
2022-10-30T09:04:32.108Z,101391.06
2022-10-30T09:07:34.885Z,101396.75
2022-10-30T09:10:37.353Z,101392.59
2022-10-30T09:13:41.274Z,101400.38
2022-10-30T09:16:43.733Z,101395.16
2022-10-30T09:22:48.675Z,101410.03
2022-10-30T09:25:51.140Z,101412.22
2022-10-30T09:28:55.073Z,101404.06
2022-10-30T09:31:57.754Z,101401.88
2022-10-30T09:35:00.216Z,101412.22
2022-10-30T09:38:02.968Z,101418.56
2022-10-30T09:41:21.700Z,101404.38
2022-10-30T09:44:36.970Z,101390.53
2022-10-30T09:47:50.368Z,101401.13
2022-10-30T09:51:01.745Z,101401.81
2022-10-30T09:54:16.079Z,101403.13
2022-10-30T09:57:30.041Z,101405.38
2022-10-30T10:00:38.871Z,101413.66
2022-10-30T10:03:56.733Z,101405.75
2022-10-30T10:07:03.729Z,101403.88
2022-10-30T10:10:11.780Z,101408.78
2022-10-30T10:13:26.812Z,101407.41
2022-10-30T10:16:35.213Z,101403.88
2022-10-30T10:19:42.684Z,101398.44
2022-10-30T10:22:49.616Z,101397.25
2022-10-30T10:25:54.583Z,101392.94
2022-10-30T10:29:11.335Z,101385.88
2022-10-30T10:32:52.910Z,101383.41
2022-10-30T10:36:06.611Z,101385.00
2022-10-30T10:39:27.003Z,101392.25
2022-10-30T10:42:40.873Z,101381.75
2022-10-30T10:45:53.868Z,101376.66
2022-10-30T10:49:14.600Z,101377.47
2022-10-30T10:52:20.663Z,101371.69
2022-10-30T10:55:27.653Z,101380.50
2022-10-30T10:58:36.319Z,101360.63
2022-10-30T11:01:41.026Z,101368.19
2022-10-30T11:04:50.754Z,101363.13
2022-10-30T11:07:58.123Z,101371.25
2022-10-30T11:11:02.296Z,101366.63
2022-10-30T11:14:14.878Z,101362.44
2022-10-30T11:17:23.596Z,101355.47
2022-10-30T11:20:35.736Z,101361.09
2022-10-30T11:23:40.635Z,101355.69
2022-10-30T11:26:43.645Z,101349.84
2022-10-30T11:29:51.927Z,101354.84
2022-10-30T11:32:56.980Z,101355.28
2022-10-30T11:36:15.446Z,101359.19
2022-10-30T11:39:20.113Z,101357.13
2022-10-30T11:42:22.682Z,101363.44
2022-10-30T11:45:27.684Z,101365.88
2022-10-30T11:48:33.541Z,101363.41
2022-10-30T11:51:40.490Z,101363.97
2022-10-30T11:54:45.948Z,101354.38
2022-10-30T11:57:51.756Z,101355.53
2022-10-30T12:01:04.912Z,101360.13
2022-10-30T12:04:23.499Z,101352.25
2022-10-30T12:07:30.694Z,101354.00
2022-10-30T12:10:37.534Z,101349.94
2022-10-30T12:13:41.386Z,101349.53
2022-10-30T12:16:48.245Z,101347.19
2022-10-30T12:19:54.228Z,101353.03
2022-10-30T12:22:59.152Z,101362.88
2022-10-30T12:26:09.911Z,101359.06
2022-10-30T12:29:17.561Z,101351.78
2022-10-30T12:32:22.750Z,101354.06
2022-10-30T12:35:38.415Z,101346.69
2022-10-30T12:38:46.476Z,101349.91
2022-10-30T12:41:58.538Z,101351.53
2022-10-30T12:45:10.376Z,101351.53
2022-10-30T12:48:19.127Z,101349.59
2022-10-30T12:51:28.449Z,101349.47
2022-10-30T12:54:38.140Z,101347.03
2022-10-30T12:57:45.540Z,101337.81
2022-10-30T13:00:55.632Z,101342.03
2022-10-30T13:04:07.160Z,101342.09
2022-10-30T13:07:19.467Z,101335.06
2022-10-30T13:10:31.927Z,101339.88
2022-10-30T13:13:37.871Z,101338.59
2022-10-30T13:16:40.377Z,101335.53
2022-10-30T13:19:45.401Z,101341.47
2022-10-30T13:22:52.792Z,101340.97
2022-10-30T13:26:08.869Z,101333.09
2022-10-30T13:29:21.261Z,101339.38
2022-10-30T13:32:32.107Z,101328.31
2022-10-30T13:35:42.273Z,101333.81
2022-10-30T13:38:52.740Z,101321.84
2022-10-30T13:42:11.302Z,101336.41
2022-10-30T13:45:40.619Z,101337.25
2022-10-30T13:48:56.871Z,101343.94
2022-10-30T13:52:05.665Z,101343.56
2022-10-30T13:55:18.795Z,101341.94
2022-10-30T13:58:30.029Z,101351.41
2022-10-30T14:01:37.662Z,101345.63
2022-10-30T14:04:49.579Z,101344.38
2022-10-30T14:08:06.048Z,101333.72
2022-10-30T14:11:13.617Z,101340.41
2022-10-30T14:14:30.421Z,101336.56
2022-10-30T14:17:32.916Z,101338.16
2022-10-30T14:20:35.477Z,101336.66
2022-10-30T14:23:39.217Z,101338.75
2022-10-30T14:26:50.084Z,101335.66
2022-10-30T14:29:57.066Z,101340.03
2022-10-30T14:32:59.573Z,101345.97
2022-10-30T14:36:19.826Z,101341.31
2022-10-30T14:39:30.441Z,101342.00
2022-10-30T14:42:40.889Z,101346.25
2022-10-30T14:45:52.220Z,101352.84
2022-10-30T14:49:04.811Z,101341.41
2022-10-30T14:52:18.893Z,101336.81
2022-10-30T14:55:31.816Z,101340.19
2022-10-30T14:58:36.253Z,101338.59
2022-10-30T15:01:49.883Z,101337.53
2022-10-30T15:05:20.077Z,101334.78
2022-10-30T15:08:48.005Z,101339.22
2022-10-30T15:12:19.391Z,101343.31
2022-10-30T15:15:22.541Z,101327.19
2022-10-30T15:18:30.524Z,101326.00
2022-10-30T15:21:42.154Z,101326.84
2022-10-30T15:24:44.668Z,101329.66
2022-10-30T15:27:48.641Z,101324.59
2022-10-30T15:31:02.160Z,101332.22
2022-10-30T15:34:22.597Z,101326.50
2022-10-30T15:37:25.162Z,101324.88
2022-10-30T15:40:28.739Z,101324.31
2022-10-30T15:43:33.278Z,101322.66
2022-10-30T15:46:36.071Z,101318.09
2022-10-30T15:49:43.012Z,101326.47
2022-10-30T15:52:45.546Z,101317.91
2022-10-30T15:55:49.370Z,101319.69
2022-10-30T15:58:54.816Z,101324.78
2022-10-30T16:01:58.853Z,101323.38
2022-10-30T16:05:02.896Z,101331.06
2022-10-30T16:08:13.275Z,101323.31
2022-10-30T16:11:16.595Z,101326.28
2022-10-30T16:14:23.383Z,101334.25
2022-10-30T16:17:27.601Z,101334.75
2022-10-30T16:20:31.468Z,101333.22
2022-10-30T16:23:39.302Z,101339.19
2022-10-30T16:26:41.911Z,101337.41
2022-10-30T16:29:46.680Z,101345.34
2022-10-30T16:32:54.521Z,101345.63
2022-10-30T16:35:59.564Z,101349.09
2022-10-30T16:39:02.587Z,101345.44
2022-10-30T16:42:05.662Z,101348.09
2022-10-30T16:45:47.985Z,101341.97
2022-10-30T16:48:57.569Z,101344.47
2022-10-30T16:52:05.039Z,101351.31
2022-10-30T16:55:10.005Z,101354.81
2022-10-30T16:58:14.587Z,101353.81
2022-10-30T17:01:17.514Z,101351.41
2022-10-30T17:04:20.175Z,101352.88
2022-10-30T17:07:26.322Z,101360.66
2022-10-30T17:10:34.145Z,101361.63
2022-10-30T17:13:38.218Z,101363.88
2022-10-30T17:16:41.325Z,101363.97
2022-10-30T17:19:48.542Z,101366.25
2022-10-30T17:23:05.345Z,101371.69
2022-10-30T17:26:12.504Z,101363.75
2022-10-30T17:29:44.982Z,101365.81
2022-10-30T17:32:53.497Z,101364.63
2022-10-30T17:35:56.105Z,101362.00
2022-10-30T17:38:59.937Z,101375.66
2022-10-30T17:42:02.460Z,101374.97
2022-10-30T17:45:06.991Z,101377.56
2022-10-30T17:48:14.948Z,101378.09
2022-10-30T17:51:18.921Z,101381.03
2022-10-30T17:54:23.042Z,101378.75
2022-10-30T17:57:27.009Z,101381.53
2022-10-30T18:00:29.513Z,101383.59
2022-10-30T18:03:32.097Z,101379.44
2022-10-30T18:06:34.582Z,101388.28
2022-10-30T18:09:39.035Z,101384.13
2022-10-30T18:12:42.298Z,101395.00
2022-10-30T18:15:48.946Z,101390.09
2022-10-30T18:18:53.373Z,101389.63
2022-10-30T18:21:55.859Z,101394.47
2022-10-30T18:24:59.701Z,101397.06
2022-10-30T18:28:02.218Z,101394.91
2022-10-30T18:31:04.814Z,101390.84
2022-10-30T18:34:15.161Z,101392.38
2022-10-30T18:37:17.651Z,101398.06
2022-10-30T18:40:22.713Z,101394.59
2022-10-30T18:43:25.402Z,101398.72
2022-10-30T18:46:29.098Z,101404.25
2022-10-30T18:49:33.253Z,101399.22
2022-10-30T18:52:35.728Z,101405.97
2022-10-30T18:55:41.200Z,101406.22
2022-10-30T18:58:43.703Z,101398.75
2022-10-30T19:01:46.284Z,101405.13
2022-10-30T19:04:48.837Z,101412.59
2022-10-30T19:07:51.316Z,101403.75
2022-10-30T19:10:57.996Z,101400.31
2022-10-30T19:14:00.704Z,101403.31
2022-10-30T19:17:03.258Z,101400.63
2022-10-30T19:20:06.618Z,101397.09
2022-10-30T19:23:15.064Z,101398.28
2022-10-30T19:26:18.892Z,101400.16
2022-10-30T19:29:21.371Z,101401.94
2022-10-30T19:32:23.901Z,101405.19
2022-10-30T19:35:27.177Z,101412.28
2022-10-30T19:38:30.086Z,101408.78
2022-10-30T19:41:33.936Z,101411.78
2022-10-30T19:44:36.436Z,101408.09
2022-10-30T19:47:39.051Z,101413.66
2022-10-30T19:50:42.663Z,101409.41
2022-10-30T19:53:45.141Z,101413.97
2022-10-30T19:56:48.945Z,101411.22
2022-10-30T19:59:51.426Z,101408.31
2022-10-30T20:02:55.224Z,101408.31
2022-10-30T20:05:57.720Z,101420.50
2022-10-30T20:09:02.429Z,101416.19
2022-10-30T20:12:07.006Z,101415.53
2022-10-30T20:15:14.024Z,101425.28
2022-10-30T20:18:18.712Z,101422.69
2022-10-30T20:21:21.499Z,101425.72
2022-10-30T20:24:24.356Z,101420.84
2022-10-30T20:27:28.205Z,101419.25
2022-10-30T20:30:31.154Z,101411.97
2022-10-30T20:33:33.972Z,101408.34
2022-10-30T20:36:36.461Z,101412.03
2022-10-30T20:39:38.952Z,101411.25
2022-10-30T20:42:43.264Z,101412.28
2022-10-30T20:45:45.862Z,101415.84
2022-10-30T20:48:48.915Z,101421.19
2022-10-30T20:51:51.418Z,101425.97
2022-10-30T20:54:53.916Z,101422.38
2022-10-30T20:57:58.049Z,101428.00
2022-10-30T21:01:00.866Z,101424.41
2022-10-30T21:04:03.434Z,101427.50
2022-10-30T21:07:05.932Z,101432.75
2022-10-30T21:10:08.980Z,101431.91
2022-10-30T21:13:12.841Z,101435.53
2022-10-30T21:16:15.336Z,101430.47
2022-10-30T21:19:17.854Z,101441.31
2022-10-30T21:22:20.337Z,101433.34
2022-10-30T21:25:22.871Z,101434.34
2022-10-30T21:28:26.697Z,101434.34
2022-10-30T21:31:29.264Z,101436.34
2022-10-30T21:34:31.757Z,101434.75
2022-10-30T21:37:35.590Z,101430.44
2022-10-30T21:40:38.109Z,101436.47
2022-10-30T21:43:41.949Z,101448.09
2022-10-30T21:46:44.455Z,101440.53
2022-10-30T21:49:46.911Z,101443.91
2022-10-30T21:52:49.392Z,101442.38
2022-10-30T21:55:51.869Z,101445.13
2022-10-30T21:58:56.683Z,101445.28
2022-10-30T22:01:59.231Z,101444.41
2022-10-30T22:05:01.725Z,101452.56
2022-10-30T22:08:04.245Z,101446.47
2022-10-30T22:11:08.243Z,101448.28
2022-10-30T22:14:12.277Z,101446.84
2022-10-30T22:17:14.752Z,101441.91
2022-10-30T22:20:17.548Z,101441.84
2022-10-30T22:23:20.037Z,101441.66
2022-10-30T22:26:24.008Z,101439.78
2022-10-30T22:29:27.860Z,101443.31
2022-10-30T22:32:30.346Z,101447.63
2022-10-30T22:35:32.830Z,101457.22
2022-10-30T22:38:36.093Z,101459.03
2022-10-30T22:41:38.724Z,101452.25
2022-10-30T22:44:42.604Z,101455.19
2022-10-30T22:47:45.091Z,101454.19
2022-10-30T22:50:47.576Z,101456.84
2022-10-30T22:53:56.901Z,101456.72
2022-10-30T22:56:59.395Z,101464.72
2022-10-30T23:00:03.213Z,101464.72
2022-10-30T23:03:05.773Z,101465.72
2022-10-30T23:06:08.679Z,101456.66
2022-10-30T23:09:16.944Z,101468.19
2022-10-30T23:12:19.432Z,101462.72
2022-10-30T23:15:23.713Z,101463.44
2022-10-30T23:18:26.320Z,101455.31
2022-10-30T23:21:30.859Z,101456.38
2022-10-30T23:24:33.803Z,101465.03
2022-10-30T23:27:36.620Z,101469.22
2022-10-30T23:30:43.846Z,101483.25
2022-10-30T23:33:47.528Z,101482.66
2022-10-30T23:36:49.995Z,101483.13
2022-10-30T23:39:52.481Z,101486.66
2022-10-30T23:42:55.383Z,101485.25
2022-10-30T23:45:59.290Z,101496.06
2022-10-30T23:49:02.372Z,101497.00
2022-10-30T23:52:04.994Z,101494.38
2022-10-30T23:55:08.715Z,101499.00
2022-10-30T23:58:11.262Z,101508.75
